sensor_id;sensor_type;location;lat;lon;timestamp;temperature;humidity
65568;DHT22;52211;50.154;8.682;2023-03-14T00:00:23;13.00;71.20
65568;DHT22;52211;50.154;8.682;2023-03-14T00:02:55;13.00;71.30
65568;DHT22;52211;50.154;8.682;2023-03-14T00:05:25;13.00;71.20
65568;DHT22;52211;50.154;8.682;2023-03-14T00:07:52;13.00;71.20
65568;DHT22;52211;50.154;8.682;2023-03-14T00:10:24;13.00;71.20
65568;DHT22;52211;50.154;8.682;2023-03-14T00:12:55;13.00;71.30
65568;DHT22;52211;50.154;8.682;2023-03-14T00:15:27;13.00;71.30
65568;DHT22;52211;50.154;8.682;2023-03-14T00:17:59;13.00;71.30
65568;DHT22;52211;50.154;8.682;2023-03-14T00:20:28;13.10;71.30
65568;DHT22;52211;50.154;8.682;2023-03-14T00:23:00;13.00;71.30
65568;DHT22;52211;50.154;8.682;2023-03-14T00:25:29;13.10;71.30
65568;DHT22;52211;50.154;8.682;2023-03-14T00:27:58;13.10;71.30
65568;DHT22;52211;50.154;8.682;2023-03-14T00:30:27;13.10;71.30
65568;DHT22;52211;50.154;8.682;2023-03-14T00:32:54;13.10;71.30
65568;DHT22;52211;50.154;8.682;2023-03-14T00:35:25;13.10;71.20
65568;DHT22;52211;50.154;8.682;2023-03-14T00:37:53;13.10;71.20
65568;DHT22;52211;50.154;8.682;2023-03-14T00:40:22;13.10;71.20
65568;DHT22;52211;50.154;8.682;2023-03-14T00:42:49;13.10;71.20
65568;DHT22;52211;50.154;8.682;2023-03-14T00:45:16;13.10;71.10
65568;DHT22;52211;50.154;8.682;2023-03-14T00:47:43;13.10;71.10
65568;DHT22;52211;50.154;8.682;2023-03-14T00:50:14;13.10;71.10
65568;DHT22;52211;50.154;8.682;2023-03-14T00:52:45;13.00;71.10
65568;DHT22;52211;50.154;8.682;2023-03-14T00:55:16;13.10;71.10
65568;DHT22;52211;50.154;8.682;2023-03-14T00:57:48;13.10;71.00
65568;DHT22;52211;50.154;8.682;2023-03-14T01:00:17;13.10;71.00
65568;DHT22;52211;50.154;8.682;2023-03-14T01:02:47;13.10;70.90
65568;DHT22;52211;50.154;8.682;2023-03-14T01:05:19;13.10;70.90
65568;DHT22;52211;50.154;8.682;2023-03-14T01:07:46;13.10;70.80
65568;DHT22;52211;50.154;8.682;2023-03-14T01:10:15;13.10;70.80
65568;DHT22;52211;50.154;8.682;2023-03-14T01:12:42;13.10;70.80
65568;DHT22;52211;50.154;8.682;2023-03-14T01:15:09;13.10;70.80
65568;DHT22;52211;50.154;8.682;2023-03-14T01:17:37;13.10;70.80
65568;DHT22;52211;50.154;8.682;2023-03-14T01:20:11;13.10;70.70
65568;DHT22;52211;50.154;8.682;2023-03-14T01:22:43;13.10;70.70
65568;DHT22;52211;50.154;8.682;2023-03-14T01:25:13;13.10;70.80
65568;DHT22;52211;50.154;8.682;2023-03-14T01:27:42;13.10;70.80
65568;DHT22;52211;50.154;8.682;2023-03-14T01:30:13;13.10;70.70
65568;DHT22;52211;50.154;8.682;2023-03-14T01:32:47;13.10;70.70
65568;DHT22;52211;50.154;8.682;2023-03-14T01:35:20;13.10;70.70
65568;DHT22;52211;50.154;8.682;2023-03-14T01:37:51;13.20;70.70
65568;DHT22;52211;50.154;8.682;2023-03-14T01:40:21;13.10;70.60
65568;DHT22;52211;50.154;8.682;2023-03-14T01:43:04;13.20;70.60
65568;DHT22;52211;50.154;8.682;2023-03-14T01:49:04;13.20;70.50
65568;DHT22;52211;50.154;8.682;2023-03-14T01:55:07;13.20;70.40
65568;DHT22;52211;50.154;8.682;2023-03-14T01:57:42;13.20;70.40
65568;DHT22;52211;50.154;8.682;2023-03-14T02:00:19;13.10;70.40
65568;DHT22;52211;50.154;8.682;2023-03-14T02:02:51;13.20;70.40
65568;DHT22;52211;50.154;8.682;2023-03-14T02:05:28;13.10;70.30
65568;DHT22;52211;50.154;8.682;2023-03-14T02:08:11;13.20;70.40
65568;DHT22;52211;50.154;8.682;2023-03-14T02:10:50;13.10;70.30
65568;DHT22;52211;50.154;8.682;2023-03-14T02:13:26;13.10;70.30
65568;DHT22;52211;50.154;8.682;2023-03-14T02:15:53;13.10;70.20
65568;DHT22;52211;50.154;8.682;2023-03-14T02:18:49;13.10;70.20
65568;DHT22;52211;50.154;8.682;2023-03-14T02:27:34;13.10;70.10
65568;DHT22;52211;50.154;8.682;2023-03-14T02:30:08;13.20;70.20
65568;DHT22;52211;50.154;8.682;2023-03-14T02:32:44;13.10;70.10
65568;DHT22;52211;50.154;8.682;2023-03-14T02:35:18;13.20;70.10
65568;DHT22;52211;50.154;8.682;2023-03-14T02:38:04;13.20;70.20
65568;DHT22;52211;50.154;8.682;2023-03-14T02:40:54;13.20;70.00
65568;DHT22;52211;50.154;8.682;2023-03-14T02:43:24;13.20;70.00
65568;DHT22;52211;50.154;8.682;2023-03-14T02:46:00;13.20;69.90
65568;DHT22;52211;50.154;8.682;2023-03-14T02:48:40;13.20;70.00
65568;DHT22;52211;50.154;8.682;2023-03-14T02:51:11;13.20;69.90
65568;DHT22;52211;50.154;8.682;2023-03-14T02:53:38;13.20;69.90
65568;DHT22;52211;50.154;8.682;2023-03-14T02:56:15;13.20;69.90
65568;DHT22;52211;50.154;8.682;2023-03-14T02:58:42;13.20;69.90
65568;DHT22;52211;50.154;8.682;2023-03-14T03:01:35;13.20;69.90
65568;DHT22;52211;50.154;8.682;2023-03-14T03:04:07;13.20;69.90
65568;DHT22;52211;50.154;8.682;2023-03-14T03:06:38;13.20;69.80
65568;DHT22;52211;50.154;8.682;2023-03-14T03:09:05;13.20;69.70
65568;DHT22;52211;50.154;8.682;2023-03-14T03:11:35;13.20;69.70
65568;DHT22;52211;50.154;8.682;2023-03-14T03:14:03;13.20;69.70
65568;DHT22;52211;50.154;8.682;2023-03-14T03:16:35;13.20;69.70
65568;DHT22;52211;50.154;8.682;2023-03-14T03:19:02;13.20;69.60
65568;DHT22;52211;50.154;8.682;2023-03-14T03:21:31;13.20;69.60
65568;DHT22;52211;50.154;8.682;2023-03-14T03:24:02;13.20;69.50
65568;DHT22;52211;50.154;8.682;2023-03-14T03:26:40;13.20;69.60
65568;DHT22;52211;50.154;8.682;2023-03-14T03:29:09;13.20;69.60
65568;DHT22;52211;50.154;8.682;2023-03-14T03:31:41;13.20;69.50
65568;DHT22;52211;50.154;8.682;2023-03-14T03:34:16;13.20;69.40
65568;DHT22;52211;50.154;8.682;2023-03-14T03:36:49;13.20;69.40
65568;DHT22;52211;50.154;8.682;2023-03-14T03:39:16;13.20;69.50
65568;DHT22;52211;50.154;8.682;2023-03-14T03:41:48;13.20;69.40
65568;DHT22;52211;50.154;8.682;2023-03-14T03:44:20;13.20;69.50
65568;DHT22;52211;50.154;8.682;2023-03-14T03:46:47;13.10;69.40
65568;DHT22;52211;50.154;8.682;2023-03-14T03:49:14;13.20;69.50
65568;DHT22;52211;50.154;8.682;2023-03-14T03:51:43;13.20;69.40
65568;DHT22;52211;50.154;8.682;2023-03-14T03:54:18;13.20;69.50
65568;DHT22;52211;50.154;8.682;2023-03-14T03:56:45;13.10;69.50
65568;DHT22;52211;50.154;8.682;2023-03-14T03:59:14;13.10;69.40
65568;DHT22;52211;50.154;8.682;2023-03-14T04:01:47;13.20;69.50
65568;DHT22;52211;50.154;8.682;2023-03-14T04:04:14;13.20;69.50
65568;DHT22;52211;50.154;8.682;2023-03-14T04:06:42;13.10;69.50
65568;DHT22;52211;50.154;8.682;2023-03-14T04:09:11;13.10;69.50
65568;DHT22;52211;50.154;8.682;2023-03-14T04:11:48;13.10;69.50
65568;DHT22;52211;50.154;8.682;2023-03-14T04:14:20;13.10;69.50
65568;DHT22;52211;50.154;8.682;2023-03-14T04:16:54;13.10;69.50
65568;DHT22;52211;50.154;8.682;2023-03-14T04:19:25;13.10;69.50
65568;DHT22;52211;50.154;8.682;2023-03-14T04:21:56;13.20;69.60
65568;DHT22;52211;50.154;8.682;2023-03-14T04:24:27;13.10;69.50
65568;DHT22;52211;50.154;8.682;2023-03-14T04:26:58;13.10;69.40
65568;DHT22;52211;50.154;8.682;2023-03-14T04:29:25;13.20;69.40
65568;DHT22;52211;50.154;8.682;2023-03-14T04:31:55;13.10;69.40
65568;DHT22;52211;50.154;8.682;2023-03-14T04:34:24;13.10;69.40
65568;DHT22;52211;50.154;8.682;2023-03-14T04:36:54;13.10;69.30
65568;DHT22;52211;50.154;8.682;2023-03-14T04:39:28;13.20;69.30
65568;DHT22;52211;50.154;8.682;2023-03-14T04:42:04;13.20;69.30
65568;DHT22;52211;50.154;8.682;2023-03-14T04:44:36;13.20;69.30
65568;DHT22;52211;50.154;8.682;2023-03-14T04:47:03;13.10;69.20
65568;DHT22;52211;50.154;8.682;2023-03-14T04:49:33;13.20;69.20
65568;DHT22;52211;50.154;8.682;2023-03-14T04:52:03;13.20;69.20
65568;DHT22;52211;50.154;8.682;2023-03-14T04:54:38;13.20;69.10
65568;DHT22;52211;50.154;8.682;2023-03-14T04:57:07;13.20;69.00
65568;DHT22;52211;50.154;8.682;2023-03-14T04:59:36;13.20;69.00
65568;DHT22;52211;50.154;8.682;2023-03-14T05:02:26;13.20;69.00
65568;DHT22;52211;50.154;8.682;2023-03-14T05:05:16;13.20;69.00
65568;DHT22;52211;50.154;8.682;2023-03-14T05:07:59;13.20;69.00
65568;DHT22;52211;50.154;8.682;2023-03-14T05:10:58;13.20;68.90
65568;DHT22;52211;50.154;8.682;2023-03-14T05:13:44;13.20;68.90
65568;DHT22;52211;50.154;8.682;2023-03-14T05:16:39;13.20;68.80
65568;DHT22;52211;50.154;8.682;2023-03-14T05:19:29;13.20;68.70
65568;DHT22;52211;50.154;8.682;2023-03-14T05:22:04;13.20;68.60
65568;DHT22;52211;50.154;8.682;2023-03-14T05:24:34;13.20;68.60
65568;DHT22;52211;50.154;8.682;2023-03-14T05:27:14;13.20;68.60
65568;DHT22;52211;50.154;8.682;2023-03-14T05:29:59;13.20;68.60
65568;DHT22;52211;50.154;8.682;2023-03-14T05:32:40;13.20;68.60
65568;DHT22;52211;50.154;8.682;2023-03-14T05:35:16;13.20;68.50
65568;DHT22;52211;50.154;8.682;2023-03-14T05:38:11;13.20;68.50
65568;DHT22;52211;50.154;8.682;2023-03-14T05:40:52;13.20;68.40
65568;DHT22;52211;50.154;8.682;2023-03-14T05:43:39;13.20;68.40
65568;DHT22;52211;50.154;8.682;2023-03-14T05:46:20;13.20;68.20
65568;DHT22;52211;50.154;8.682;2023-03-14T05:49:14;13.20;68.30
65568;DHT22;52211;50.154;8.682;2023-03-14T05:51:58;13.20;68.20
65568;DHT22;52211;50.154;8.682;2023-03-14T05:54:48;13.10;68.10
65568;DHT22;52211;50.154;8.682;2023-03-14T05:57:35;13.20;68.10
65568;DHT22;52211;50.154;8.682;2023-03-14T06:00:41;13.10;68.00
65568;DHT22;52211;50.154;8.682;2023-03-14T06:03:20;13.10;68.00
65568;DHT22;52211;50.154;8.682;2023-03-14T06:05:50;13.10;68.20
65568;DHT22;52211;50.154;8.682;2023-03-14T06:08:20;13.10;68.00
65568;DHT22;52211;50.154;8.682;2023-03-14T06:10:50;13.10;68.00
65568;DHT22;52211;50.154;8.682;2023-03-14T06:13:24;13.10;68.00
65568;DHT22;52211;50.154;8.682;2023-03-14T06:15:53;13.10;67.90
65568;DHT22;52211;50.154;8.682;2023-03-14T06:18:25;13.10;67.90
65568;DHT22;52211;50.154;8.682;2023-03-14T06:20:59;13.10;67.90
65568;DHT22;52211;50.154;8.682;2023-03-14T06:23:26;13.10;67.70
65568;DHT22;52211;50.154;8.682;2023-03-14T06:26:00;13.10;67.80
65568;DHT22;52211;50.154;8.682;2023-03-14T06:28:29;13.10;67.70
65568;DHT22;52211;50.154;8.682;2023-03-14T06:30:59;13.10;67.70
65568;DHT22;52211;50.154;8.682;2023-03-14T06:33:34;13.10;67.70
65568;DHT22;52211;50.154;8.682;2023-03-14T06:36:02;13.10;67.70
65568;DHT22;52211;50.154;8.682;2023-03-14T06:38:30;13.10;67.60
65568;DHT22;52211;50.154;8.682;2023-03-14T06:41:05;13.10;67.70
65568;DHT22;52211;50.154;8.682;2023-03-14T06:43:41;13.10;67.60
65568;DHT22;52211;50.154;8.682;2023-03-14T06:46:11;13.10;68.30
65568;DHT22;52211;50.154;8.682;2023-03-14T06:48:40;13.10;67.70
65568;DHT22;52211;50.154;8.682;2023-03-14T06:51:11;13.10;68.30
65568;DHT22;52211;50.154;8.682;2023-03-14T06:53:38;13.20;67.70
65568;DHT22;52211;50.154;8.682;2023-03-14T06:56:06;13.10;67.60
65568;DHT22;52211;50.154;8.682;2023-03-14T06:58:38;13.10;67.50
65568;DHT22;52211;50.154;8.682;2023-03-14T07:01:20;13.20;67.50
65568;DHT22;52211;50.154;8.682;2023-03-14T07:03:51;13.20;67.40
65568;DHT22;52211;50.154;8.682;2023-03-14T07:06:25;13.20;67.60
65568;DHT22;52211;50.154;8.682;2023-03-14T07:08:54;13.20;67.50
65568;DHT22;52211;50.154;8.682;2023-03-14T07:11:21;13.20;67.60
65568;DHT22;52211;50.154;8.682;2023-03-14T07:13:48;13.20;67.50
65568;DHT22;52211;50.154;8.682;2023-03-14T07:16:15;13.20;67.60
65568;DHT22;52211;50.154;8.682;2023-03-14T07:18:42;13.20;67.50
65568;DHT22;52211;50.154;8.682;2023-03-14T07:21:12;13.30;67.40
65568;DHT22;52211;50.154;8.682;2023-03-14T07:23:48;13.30;67.30
65568;DHT22;52211;50.154;8.682;2023-03-14T07:26:23;13.20;67.20
65568;DHT22;52211;50.154;8.682;2023-03-14T07:28:51;13.30;67.40
65568;DHT22;52211;50.154;8.682;2023-03-14T07:31:19;13.30;67.40
65568;DHT22;52211;50.154;8.682;2023-03-14T07:33:48;13.30;67.30
65568;DHT22;52211;50.154;8.682;2023-03-14T07:36:16;13.30;67.30
65568;DHT22;52211;50.154;8.682;2023-03-14T07:38:48;13.30;67.30
65568;DHT22;52211;50.154;8.682;2023-03-14T07:41:29;13.30;67.20
65568;DHT22;52211;50.154;8.682;2023-03-14T07:44:19;13.30;67.20
65568;DHT22;52211;50.154;8.682;2023-03-14T07:46:46;13.30;67.10
65568;DHT22;52211;50.154;8.682;2023-03-14T07:49:17;13.30;67.10
65568;DHT22;52211;50.154;8.682;2023-03-14T07:51:47;13.30;67.10
65568;DHT22;52211;50.154;8.682;2023-03-14T07:54:17;13.30;67.10
65568;DHT22;52211;50.154;8.682;2023-03-14T07:56:46;13.30;67.10
65568;DHT22;52211;50.154;8.682;2023-03-14T07:59:15;13.30;67.10
65568;DHT22;52211;50.154;8.682;2023-03-14T08:01:42;13.30;67.00
65568;DHT22;52211;50.154;8.682;2023-03-14T08:04:12;13.30;67.10
65568;DHT22;52211;50.154;8.682;2023-03-14T08:06:39;13.30;67.10
65568;DHT22;52211;50.154;8.682;2023-03-14T08:09:06;13.30;67.10
65568;DHT22;52211;50.154;8.682;2023-03-14T08:11:33;13.30;67.10
65568;DHT22;52211;50.154;8.682;2023-03-14T08:14:07;13.30;67.80
65568;DHT22;52211;50.154;8.682;2023-03-14T08:16:40;13.30;67.20
65568;DHT22;52211;50.154;8.682;2023-03-14T08:19:09;13.40;67.20
65568;DHT22;52211;50.154;8.682;2023-03-14T08:21:36;13.30;67.00
65568;DHT22;52211;50.154;8.682;2023-03-14T08:24:08;13.40;67.00
65568;DHT22;52211;50.154;8.682;2023-03-14T08:26:38;13.40;67.10
65568;DHT22;52211;50.154;8.682;2023-03-14T08:29:05;13.40;67.10
65568;DHT22;52211;50.154;8.682;2023-03-14T08:31:35;13.40;67.10
65568;DHT22;52211;50.154;8.682;2023-03-14T08:34:06;13.40;67.10
65568;DHT22;52211;50.154;8.682;2023-03-14T08:36:38;13.40;67.10
65568;DHT22;52211;50.154;8.682;2023-03-14T08:39:05;13.40;67.10
65568;DHT22;52211;50.154;8.682;2023-03-14T08:41:38;13.40;67.00
65568;DHT22;52211;50.154;8.682;2023-03-14T08:44:14;13.40;67.00
65568;DHT22;52211;50.154;8.682;2023-03-14T08:46:46;13.40;67.00
65568;DHT22;52211;50.154;8.682;2023-03-14T08:49:16;13.40;67.00
65568;DHT22;52211;50.154;8.682;2023-03-14T08:51:46;13.40;67.10
65568;DHT22;52211;50.154;8.682;2023-03-14T08:54:16;13.40;67.10
65568;DHT22;52211;50.154;8.682;2023-03-14T08:56:43;13.40;67.20
65568;DHT22;52211;50.154;8.682;2023-03-14T08:59:12;13.40;67.10
65568;DHT22;52211;50.154;8.682;2023-03-14T09:01:42;13.40;67.10
65568;DHT22;52211;50.154;8.682;2023-03-14T09:04:08;13.40;67.10
65568;DHT22;52211;50.154;8.682;2023-03-14T09:06:43;13.40;67.20
65568;DHT22;52211;50.154;8.682;2023-03-14T09:09:13;13.50;67.20
65568;DHT22;52211;50.154;8.682;2023-03-14T09:11:40;13.50;67.10
65568;DHT22;52211;50.154;8.682;2023-03-14T09:14:07;13.50;67.00
65568;DHT22;52211;50.154;8.682;2023-03-14T09:16:34;13.60;67.10
65568;DHT22;52211;50.154;8.682;2023-03-14T09:19:03;13.60;67.00
65568;DHT22;52211;50.154;8.682;2023-03-14T09:21:30;13.70;67.00
65568;DHT22;52211;50.154;8.682;2023-03-14T09:23:57;13.70;66.90
65568;DHT22;52211;50.154;8.682;2023-03-14T09:26:29;13.70;67.00
65568;DHT22;52211;50.154;8.682;2023-03-14T09:28:58;13.70;66.90
65568;DHT22;52211;50.154;8.682;2023-03-14T09:31:27;13.80;66.90
65568;DHT22;52211;50.154;8.682;2023-03-14T09:33:57;13.80;66.70
65568;DHT22;52211;50.154;8.682;2023-03-14T09:36:28;13.90;66.70
65568;DHT22;52211;50.154;8.682;2023-03-14T09:38:58;14.00;66.80
65568;DHT22;52211;50.154;8.682;2023-03-14T09:41:36;14.00;66.50
65568;DHT22;52211;50.154;8.682;2023-03-14T09:44:14;14.00;66.40
65568;DHT22;52211;50.154;8.682;2023-03-14T09:46:47;14.10;66.50
65568;DHT22;52211;50.154;8.682;2023-03-14T09:49:30;14.10;66.50
65568;DHT22;52211;50.154;8.682;2023-03-14T09:52:32;14.10;66.50
65568;DHT22;52211;50.154;8.682;2023-03-14T09:55:06;14.00;66.40
65568;DHT22;52211;50.154;8.682;2023-03-14T09:57:42;14.00;66.30
65568;DHT22;52211;50.154;8.682;2023-03-14T10:00:18;14.00;66.30
65568;DHT22;52211;50.154;8.682;2023-03-14T10:05:43;13.90;66.40
65568;DHT22;52211;50.154;8.682;2023-03-14T10:08:10;13.90;66.50
65568;DHT22;52211;50.154;8.682;2023-03-14T10:10:39;13.90;66.70
65568;DHT22;52211;50.154;8.682;2023-03-14T10:13:18;13.90;66.70
65568;DHT22;52211;50.154;8.682;2023-03-14T10:15:59;13.90;66.90
65568;DHT22;52211;50.154;8.682;2023-03-14T10:18:31;13.90;66.60
65568;DHT22;52211;50.154;8.682;2023-03-14T10:21:17;13.90;66.70
65568;DHT22;52211;50.154;8.682;2023-03-14T10:23:55;13.90;66.70
65568;DHT22;52211;50.154;8.682;2023-03-14T10:27:20;13.90;66.70
65568;DHT22;52211;50.154;8.682;2023-03-14T10:30:00;13.90;66.70
65568;DHT22;52211;50.154;8.682;2023-03-14T10:32:37;13.90;66.60
65568;DHT22;52211;50.154;8.682;2023-03-14T10:37:58;14.00;66.60
65568;DHT22;52211;50.154;8.682;2023-03-14T10:40:42;14.00;66.50
65568;DHT22;52211;50.154;8.682;2023-03-14T10:43:18;14.00;66.50
65568;DHT22;52211;50.154;8.682;2023-03-14T10:46:17;14.10;66.60
65568;DHT22;52211;50.154;8.682;2023-03-14T10:49:26;14.10;66.60
65568;DHT22;52211;50.154;8.682;2023-03-14T10:52:29;14.10;66.50
65568;DHT22;52211;50.154;8.682;2023-03-14T10:55:13;14.10;66.60
65568;DHT22;52211;50.154;8.682;2023-03-14T10:57:43;14.10;66.60
65568;DHT22;52211;50.154;8.682;2023-03-14T11:00:14;14.10;66.70
65568;DHT22;52211;50.154;8.682;2023-03-14T11:05:48;14.00;67.00
65568;DHT22;52211;50.154;8.682;2023-03-14T11:08:33;13.90;66.90
65568;DHT22;52211;50.154;8.682;2023-03-14T11:11:25;13.90;67.20
65568;DHT22;52211;50.154;8.682;2023-03-14T11:19:47;13.70;67.40
65568;DHT22;52211;50.154;8.682;2023-03-14T11:22:37;13.70;67.70
65568;DHT22;52211;50.154;8.682;2023-03-14T11:25:27;13.70;67.80
65568;DHT22;52211;50.154;8.682;2023-03-14T11:30:55;13.60;67.80
65568;DHT22;52211;50.154;8.682;2023-03-14T11:33:47;13.60;68.10
65568;DHT22;52211;50.154;8.682;2023-03-14T11:37:00;13.50;67.90
65568;DHT22;52211;50.154;8.682;2023-03-14T11:39:40;13.50;68.30
65568;DHT22;52211;50.154;8.682;2023-03-14T11:42:15;13.50;68.30
65568;DHT22;52211;50.154;8.682;2023-03-14T11:44:48;13.50;68.40
65568;DHT22;52211;50.154;8.682;2023-03-14T11:47:23;13.40;68.60
65568;DHT22;52211;50.154;8.682;2023-03-14T11:50:20;13.40;68.70
65568;DHT22;52211;50.154;8.682;2023-03-14T11:55:38;13.40;68.80
65568;DHT22;52211;50.154;8.682;2023-03-14T11:58:22;13.50;68.90
65568;DHT22;52211;50.154;8.682;2023-03-14T12:00:55;13.50;69.00
65568;DHT22;52211;50.154;8.682;2023-03-14T12:03:56;13.50;68.90
65568;DHT22;52211;50.154;8.682;2023-03-14T12:06:51;13.50;69.10
65568;DHT22;52211;50.154;8.682;2023-03-14T12:09:20;13.50;68.90
65568;DHT22;52211;50.154;8.682;2023-03-14T12:11:54;13.50;68.90
65568;DHT22;52211;50.154;8.682;2023-03-14T12:14:26;13.50;69.00
65568;DHT22;52211;50.154;8.682;2023-03-14T12:17:21;13.50;68.60
65568;DHT22;52211;50.154;8.682;2023-03-14T12:25:28;12.90;67.20
65568;DHT22;52211;50.154;8.682;2023-03-14T12:28:04;12.70;67.40
65568;DHT22;52211;50.154;8.682;2023-03-14T12:30:54;12.50;67.60
65568;DHT22;52211;50.154;8.682;2023-03-14T12:33:30;12.40;67.90
65568;DHT22;52211;50.154;8.682;2023-03-14T12:36:04;12.30;68.40
65568;DHT22;52211;50.154;8.682;2023-03-14T12:38:56;12.20;68.40
65568;DHT22;52211;50.154;8.682;2023-03-14T12:41:48;12.10;68.40
65568;DHT22;52211;50.154;8.682;2023-03-14T12:47:15;11.90;68.00
65568;DHT22;52211;50.154;8.682;2023-03-14T12:49:51;11.80;68.20
65568;DHT22;52211;50.154;8.682;2023-03-14T12:53:07;11.80;68.50
65568;DHT22;52211;50.154;8.682;2023-03-14T12:55:55;11.80;68.80
65568;DHT22;52211;50.154;8.682;2023-03-14T13:01:06;11.80;69.00
65568;DHT22;52211;50.154;8.682;2023-03-14T13:12:10;11.90;68.50
65568;DHT22;52211;50.154;8.682;2023-03-14T13:14:48;11.90;68.60
65568;DHT22;52211;50.154;8.682;2023-03-14T13:17:31;11.90;68.40
65568;DHT22;52211;50.154;8.682;2023-03-14T13:20:13;11.90;68.20
65568;DHT22;52211;50.154;8.682;2023-03-14T13:22:49;11.90;68.00
65568;DHT22;52211;50.154;8.682;2023-03-14T13:25:17;11.90;68.20
65568;DHT22;52211;50.154;8.682;2023-03-14T13:27:45;12.00;68.30
65568;DHT22;52211;50.154;8.682;2023-03-14T13:30:23;12.10;68.00
65568;DHT22;52211;50.154;8.682;2023-03-14T13:32:56;12.10;68.10
65568;DHT22;52211;50.154;8.682;2023-03-14T13:35:25;12.20;67.90
65568;DHT22;52211;50.154;8.682;2023-03-14T13:38:03;12.30;68.00
65568;DHT22;52211;50.154;8.682;2023-03-14T13:40:38;12.40;67.90
65568;DHT22;52211;50.154;8.682;2023-03-14T13:45:55;12.60;67.80
65568;DHT22;52211;50.154;8.682;2023-03-14T13:48:28;12.70;67.60
65568;DHT22;52211;50.154;8.682;2023-03-14T13:51:05;12.90;67.50
65568;DHT22;52211;50.154;8.682;2023-03-14T13:53:53;12.90;66.70
65568;DHT22;52211;50.154;8.682;2023-03-14T13:56:27;13.00;66.00
65568;DHT22;52211;50.154;8.682;2023-03-14T13:58:56;12.90;65.40
65568;DHT22;52211;50.154;8.682;2023-03-14T14:01:32;12.90;65.30
65568;DHT22;52211;50.154;8.682;2023-03-14T14:04:14;12.80;65.30
65568;DHT22;52211;50.154;8.682;2023-03-14T14:06:50;12.70;65.30
65568;DHT22;52211;50.154;8.682;2023-03-14T14:09:29;12.60;65.60
65568;DHT22;52211;50.154;8.682;2023-03-14T14:14:49;12.50;65.50
65568;DHT22;52211;50.154;8.682;2023-03-14T14:17:32;12.50;65.20
65568;DHT22;52211;50.154;8.682;2023-03-14T14:20:06;12.40;65.50
65568;DHT22;52211;50.154;8.682;2023-03-14T14:22:38;12.40;65.40
65568;DHT22;52211;50.154;8.682;2023-03-14T14:25:11;12.40;65.10
65568;DHT22;52211;50.154;8.682;2023-03-14T14:27:43;12.40;65.20
65568;DHT22;52211;50.154;8.682;2023-03-14T14:32:48;12.40;65.40
65568;DHT22;52211;50.154;8.682;2023-03-14T14:35:23;12.30;65.10
65568;DHT22;52211;50.154;8.682;2023-03-14T14:37:59;12.20;64.70
65568;DHT22;52211;50.154;8.682;2023-03-14T14:40:33;12.20;64.90
65568;DHT22;52211;50.154;8.682;2023-03-14T14:43:05;12.00;64.70
65568;DHT22;52211;50.154;8.682;2023-03-14T14:45:35;11.80;64.90
65568;DHT22;52211;50.154;8.682;2023-03-14T14:48:10;11.70;65.10
65568;DHT22;52211;50.154;8.682;2023-03-14T14:53:42;11.60;65.80
65568;DHT22;52211;50.154;8.682;2023-03-14T14:56:25;11.40;65.10
65568;DHT22;52211;50.154;8.682;2023-03-14T14:59:00;11.30;65.20
65568;DHT22;52211;50.154;8.682;2023-03-14T15:01:38;11.30;65.40
65568;DHT22;52211;50.154;8.682;2023-03-14T15:04:13;11.30;65.30
65568;DHT22;52211;50.154;8.682;2023-03-14T15:06:47;11.10;65.50
65568;DHT22;52211;50.154;8.682;2023-03-14T15:09:16;11.10;65.50
65568;DHT22;52211;50.154;8.682;2023-03-14T15:11:48;11.10;65.60
65568;DHT22;52211;50.154;8.682;2023-03-14T15:14:18;11.10;65.70
65568;DHT22;52211;50.154;8.682;2023-03-14T15:16:45;11.00;65.70
65568;DHT22;52211;50.154;8.682;2023-03-14T15:19:31;10.90;65.60
65568;DHT22;52211;50.154;8.682;2023-03-14T15:22:05;10.90;65.30
65568;DHT22;52211;50.154;8.682;2023-03-14T15:24:37;10.80;65.60
65568;DHT22;52211;50.154;8.682;2023-03-14T15:27:13;10.80;65.60
65568;DHT22;52211;50.154;8.682;2023-03-14T15:29:41;10.70;65.60
65568;DHT22;52211;50.154;8.682;2023-03-14T15:32:12;10.70;65.60
65568;DHT22;52211;50.154;8.682;2023-03-14T15:34:43;10.60;65.60
65568;DHT22;52211;50.154;8.682;2023-03-14T15:37:14;10.50;65.50
65568;DHT22;52211;50.154;8.682;2023-03-14T15:39:48;10.40;65.60
65568;DHT22;52211;50.154;8.682;2023-03-14T15:42:15;10.40;65.70
65568;DHT22;52211;50.154;8.682;2023-03-14T15:44:42;10.40;65.60
65568;DHT22;52211;50.154;8.682;2023-03-14T15:47:14;10.30;65.60
65568;DHT22;52211;50.154;8.682;2023-03-14T15:49:46;10.30;65.70
65568;DHT22;52211;50.154;8.682;2023-03-14T15:52:13;10.20;65.90
65568;DHT22;52211;50.154;8.682;2023-03-14T15:54:42;10.10;66.10
65568;DHT22;52211;50.154;8.682;2023-03-14T15:57:12;10.10;66.20
65568;DHT22;52211;50.154;8.682;2023-03-14T15:59:43;10.20;66.40
65568;DHT22;52211;50.154;8.682;2023-03-14T16:02:12;10.20;66.40
65568;DHT22;52211;50.154;8.682;2023-03-14T16:04:44;10.20;66.30
65568;DHT22;52211;50.154;8.682;2023-03-14T16:07:15;10.20;66.20
65568;DHT22;52211;50.154;8.682;2023-03-14T16:09:42;10.20;66.10
65568;DHT22;52211;50.154;8.682;2023-03-14T16:12:11;10.20;66.00
65568;DHT22;52211;50.154;8.682;2023-03-14T16:14:41;10.20;66.00
65568;DHT22;52211;50.154;8.682;2023-03-14T16:17:09;10.20;66.00
65568;DHT22;52211;50.154;8.682;2023-03-14T16:19:39;10.20;66.00
65568;DHT22;52211;50.154;8.682;2023-03-14T16:22:09;10.20;66.00
65568;DHT22;52211;50.154;8.682;2023-03-14T16:24:38;10.10;66.20
65568;DHT22;52211;50.154;8.682;2023-03-14T16:27:08;10.20;66.30
65568;DHT22;52211;50.154;8.682;2023-03-14T16:29:37;10.20;66.30
65568;DHT22;52211;50.154;8.682;2023-03-14T16:32:09;10.20;66.30
65568;DHT22;52211;50.154;8.682;2023-03-14T16:34:39;10.10;66.10
65568;DHT22;52211;50.154;8.682;2023-03-14T16:37:06;10.10;66.10
65568;DHT22;52211;50.154;8.682;2023-03-14T16:39:36;10.10;66.00
65568;DHT22;52211;50.154;8.682;2023-03-14T16:42:30;10.10;66.00
65568;DHT22;52211;50.154;8.682;2023-03-14T16:44:59;10.00;66.10
65568;DHT22;52211;50.154;8.682;2023-03-14T16:47:26;9.90;66.20
65568;DHT22;52211;50.154;8.682;2023-03-14T16:49:55;9.90;66.30
65568;DHT22;52211;50.154;8.682;2023-03-14T16:52:23;9.90;66.20
65568;DHT22;52211;50.154;8.682;2023-03-14T16:54:50;9.80;66.20
65568;DHT22;52211;50.154;8.682;2023-03-14T16:57:22;9.80;66.20
65568;DHT22;52211;50.154;8.682;2023-03-14T16:59:49;9.70;66.20
65568;DHT22;52211;50.154;8.682;2023-03-14T17:02:21;9.70;66.10
65568;DHT22;52211;50.154;8.682;2023-03-14T17:04:53;9.60;66.10
65568;DHT22;52211;50.154;8.682;2023-03-14T17:07:22;9.60;66.10
65568;DHT22;52211;50.154;8.682;2023-03-14T17:09:51;9.50;66.10
65568;DHT22;52211;50.154;8.682;2023-03-14T17:12:20;9.40;66.10
65568;DHT22;52211;50.154;8.682;2023-03-14T17:14:51;9.30;66.10
65568;DHT22;52211;50.154;8.682;2023-03-14T17:17:19;9.20;66.30
65568;DHT22;52211;50.154;8.682;2023-03-14T17:19:50;9.20;66.40